Mindenmines, MO (64769)

6:22 PM CST on December 19, 2014 (GMT -0600)
Frontenac Schools | Change Station
CLOSE
Current Station
Personal Weather Station
Location: Frontenac, KS
Elevation: 950 ft
Nearby Weather Stations

Elev 950 ft 37.45 °N, 94.69 °W | Updated 6 seconds ago

Overcast
Overcast
36.9 °F
Feels Like 37 °F
N
0.0
Wind Variable Wind from NNE
Gusts 1.0 mph

Today
High -- | Low -- °F
--% Chance of Precip.
Yesterday
High -- | Low -- °F
Precip. -- in
7:27 AM 5:02 PM
Waning Crescent, 5% visible
Pressure 30.19 in
Visibility 0.5 miles
Clouds Overcast 100 ft
Windchill 37 °F
Dew Point 35 °F
Humidity 93%
Rainfall 0.00 in
Snow Depth Not available.
UV 0 out of 12
Pollen 3.90 out of 12
Air Quality Not available.
Flu Activity Not available.
METAR KPTS 200015Z AUTO 00000KT 1/2SM FG OVC001 04/04 A3019 RMK AO2 T00350036

More Conditions Fewer Conditions

Pressure 30.19 in
Visibility 0.5 miles
Clouds Overcast 100 ft
Windchill 37 °F
Dew Point 35 °F
Humidity 93%
Rainfall 0.00 in
Snow Depth Not available.
UV 0 out of 12
Pollen 3.90 out of 12
Air Quality Not available.
Flu Activity Not available.
METAR KPTS 200015Z AUTO 00000KT 1/2SM FG OVC001 04/04 A3019 RMK AO2 T00350036

More Conditions Fewer Conditions

10-Day Weather Forecast

Almanac

Astronomy

Dec. 19, 2014 Rise Set
Actual Time
Civil Twilight
Nautical Twilight
Astronomical Twilight
Moon
Length of Visible Light
Length of Day
Tomorrow will be .
, % of the Moon is Illuminated

Today's Extremes

State Highs State Lows

Community

WunderPhotos

Upload Photos

1,779,084 photos uploaded!

WunderBlogs® & News

Nearby

Air Quality

  Air Quality AQ Index Pollutant
Not available.

Snow Depth

Station Depth Elevation

Earthquake Activity

City Distance Mag. Time & Date
Minimum magnitude displayed is 2.5.

Coastal Water Temperatures

Place Temperature

Nearby Weather Stations